sensor_id;sensor_type;location;lat;lon;timestamp;P1;P2;P0
76049;PMS7003;64967;50.234;19.224;2023-05-18T00:01:21;24.25;19.75;15.00
76049;PMS7003;64967;50.234;19.224;2023-05-18T00:03:49;20.00;19.00;12.00
76049;PMS7003;64967;50.234;19.224;2023-05-18T00:06:32;21.50;18.75;14.75
76049;PMS7003;64967;50.234;19.224;2023-05-18T00:09:22;18.25;17.25;11.50
76049;PMS7003;64967;50.234;19.224;2023-05-18T00:12:19;19.75;17.00;12.75
76049;PMS7003;64967;50.234;19.224;2023-05-18T00:15:08;23.00;18.00;12.50
76049;PMS7003;64967;50.234;19.224;2023-05-18T00:17:47;15.25;15.25;10.75
76049;PMS7003;64967;50.234;19.224;2023-05-18T00:20:16;19.25;17.75;12.00
76049;PMS7003;64967;50.234;19.224;2023-05-18T00:22:44;16.00;14.50;9.75
76049;PMS7003;64967;50.234;19.224;2023-05-18T00:25:13;16.00;15.00;11.00
76049;PMS7003;64967;50.234;19.224;2023-05-18T00:27:40;20.00;19.00;14.00
76049;PMS7003;64967;50.234;19.224;2023-05-18T00:30:07;16.00;14.25;9.25
76049;PMS7003;64967;50.234;19.224;2023-05-18T00:32:35;25.25;18.00;13.50
76049;PMS7003;64967;50.234;19.224;2023-05-18T00:35:02;19.25;17.50;12.00
76049;PMS7003;64967;50.234;19.224;2023-05-18T00:37:29;19.00;18.00;12.75
76049;PMS7003;64967;50.234;19.224;2023-05-18T00:39:56;14.75;12.00;9.00
76049;PMS7003;64967;50.234;19.224;2023-05-18T00:42:23;16.75;14.50;10.00
76049;PMS7003;64967;50.234;19.224;2023-05-18T00:44:50;15.25;14.25;10.25
76049;PMS7003;64967;50.234;19.224;2023-05-18T00:47:16;15.75;15.00;11.00
76049;PMS7003;64967;50.234;19.224;2023-05-18T00:49:46;20.75;18.00;14.75
76049;PMS7003;64967;50.234;19.224;2023-05-18T00:52:13;21.25;18.25;10.75
76049;PMS7003;64967;50.234;19.224;2023-05-18T00:54:41;18.75;16.75;12.00
76049;PMS7003;64967;50.234;19.224;2023-05-18T00:57:09;12.50;11.00;9.00
76049;PMS7003;64967;50.234;19.224;2023-05-18T00:59:36;17.50;13.75;10.00
76049;PMS7003;64967;50.234;19.224;2023-05-18T01:02:03;19.50;17.50;12.50
76049;PMS7003;64967;50.234;19.224;2023-05-18T01:04:31;16.25;12.25;9.75
76049;PMS7003;64967;50.234;19.224;2023-05-18T01:06:59;16.25;12.25;9.00
76049;PMS7003;64967;50.234;19.224;2023-05-18T01:09:45;15.75;14.00;10.50
76049;PMS7003;64967;50.234;19.224;2023-05-18T01:12:40;12.75;12.00;9.00
76049;PMS7003;64967;50.234;19.224;2023-05-18T01:15:37;15.75;15.25;10.25
76049;PMS7003;64967;50.234;19.224;2023-05-18T01:18:39;13.00;11.50;9.00
76049;PMS7003;64967;50.234;19.224;2023-05-18T01:26:58;11.00;9.00;6.25
76049;PMS7003;64967;50.234;19.224;2023-05-18T01:29:26;16.75;15.75;10.00
76049;PMS7003;64967;50.234;19.224;2023-05-18T01:31:56;9.00;8.50;5.50
76049;PMS7003;64967;50.234;19.224;2023-05-18T01:34:23;5.25;4.50;4.00
76049;PMS7003;64967;50.234;19.224;2023-05-18T01:36:50;5.25;4.00;3.00
76049;PMS7003;64967;50.234;19.224;2023-05-18T01:39:18;5.50;5.50;5.00
76049;PMS7003;64967;50.234;19.224;2023-05-18T01:41:49;16.75;13.00;9.75
76049;PMS7003;64967;50.234;19.224;2023-05-18T01:44:25;15.00;12.50;9.75
76049;PMS7003;64967;50.234;19.224;2023-05-18T01:47:07;15.25;14.00;10.00
76049;PMS7003;64967;50.234;19.224;2023-05-18T01:52:15;18.75;15.25;11.00
76049;PMS7003;64967;50.234;19.224;2023-05-18T01:54:52;15.25;14.00;10.25
76049;PMS7003;64967;50.234;19.224;2023-05-18T01:57:22;20.25;17.25;12.00
76049;PMS7003;64967;50.234;19.224;2023-05-18T01:59:52;12.75;11.50;10.00
76049;PMS7003;64967;50.234;19.224;2023-05-18T02:02:20;14.50;13.00;9.00
76049;PMS7003;64967;50.234;19.224;2023-05-18T02:04:48;12.25;11.75;9.25
76049;PMS7003;64967;50.234;19.224;2023-05-18T02:07:15;15.00;14.00;10.25
76049;PMS7003;64967;50.234;19.224;2023-05-18T02:09:42;16.50;14.00;10.00
76049;PMS7003;64967;50.234;19.224;2023-05-18T02:12:09;17.00;16.50;10.00
76049;PMS7003;64967;50.234;19.224;2023-05-18T02:14:37;15.00;14.00;9.00
76049;PMS7003;64967;50.234;19.224;2023-05-18T02:17:04;11.50;11.00;8.00
76049;PMS7003;64967;50.234;19.224;2023-05-18T02:19:32;11.00;10.00;9.00
76049;PMS7003;64967;50.234;19.224;2023-05-18T02:22:04;15.75;13.50;11.00
76049;PMS7003;64967;50.234;19.224;2023-05-18T02:24:32;17.25;12.75;9.00
76049;PMS7003;64967;50.234;19.224;2023-05-18T02:26:59;12.25;9.25;7.00
76049;PMS7003;64967;50.234;19.224;2023-05-18T02:29:27;11.00;10.25;7.50
76049;PMS7003;64967;50.234;19.224;2023-05-18T02:31:54;11.50;9.25;7.50
76049;PMS7003;64967;50.234;19.224;2023-05-18T02:34:21;12.00;11.00;8.00
76049;PMS7003;64967;50.234;19.224;2023-05-18T02:36:50;9.75;8.50;7.25
76049;PMS7003;64967;50.234;19.224;2023-05-18T02:39:17;18.00;16.00;11.25
76049;PMS7003;64967;50.234;19.224;2023-05-18T02:41:44;14.00;11.00;8.00
76049;PMS7003;64967;50.234;19.224;2023-05-18T02:44:11;13.00;11.00;8.00
76049;PMS7003;64967;50.234;19.224;2023-05-18T02:46:38;15.25;12.00;9.00
76049;PMS7003;64967;50.234;19.224;2023-05-18T02:49:07;18.00;15.00;10.25
76049;PMS7003;64967;50.234;19.224;2023-05-18T02:51:35;15.25;14.75;10.00
76049;PMS7003;64967;50.234;19.224;2023-05-18T02:54:04;12.75;11.25;8.50
76049;PMS7003;64967;50.234;19.224;2023-05-18T02:56:33;17.75;15.25;12.50
76049;PMS7003;64967;50.234;19.224;2023-05-18T02:59:00;16.00;15.00;9.75
76049;PMS7003;64967;50.234;19.224;2023-05-18T03:01:33;15.50;15.00;11.00
76049;PMS7003;64967;50.234;19.224;2023-05-18T03:04:02;13.50;11.75;9.00
76049;PMS7003;64967;50.234;19.224;2023-05-18T03:06:30;12.50;11.00;9.00
76049;PMS7003;64967;50.234;19.224;2023-05-18T03:08:57;10.00;9.75;7.75
76049;PMS7003;64967;50.234;19.224;2023-05-18T03:11:24;14.50;10.75;9.00
76049;PMS7003;64967;50.234;19.224;2023-05-18T03:13:54;8.25;7.75;5.50
76049;PMS7003;64967;50.234;19.224;2023-05-18T03:16:21;13.00;12.50;9.25
76049;PMS7003;64967;50.234;19.224;2023-05-18T03:18:54;14.00;13.50;9.50
76049;PMS7003;64967;50.234;19.224;2023-05-18T03:21:21;14.50;11.00;8.75
76049;PMS7003;64967;50.234;19.224;2023-05-18T03:23:48;9.50;9.00;7.00
76049;PMS7003;64967;50.234;19.224;2023-05-18T03:26:15;15.25;11.00;6.25
76049;PMS7003;64967;50.234;19.224;2023-05-18T03:28:42;14.25;12.75;9.75
76049;PMS7003;64967;50.234;19.224;2023-05-18T03:31:09;9.75;8.75;5.75
76049;PMS7003;64967;50.234;19.224;2023-05-18T03:33:36;8.00;5.00;4.25
76049;PMS7003;64967;50.234;19.224;2023-05-18T03:36:06;9.00;7.50;6.00
76049;PMS7003;64967;50.234;19.224;2023-05-18T03:38:34;11.75;10.00;9.00
76049;PMS7003;64967;50.234;19.224;2023-05-18T03:41:01;14.50;11.75;10.50
76049;PMS7003;64967;50.234;19.224;2023-05-18T03:43:29;12.25;11.00;9.25
76049;PMS7003;64967;50.234;19.224;2023-05-18T03:45:58;13.00;10.00;7.50
76049;PMS7003;64967;50.234;19.224;2023-05-18T03:48:25;13.25;11.00;9.00
76049;PMS7003;64967;50.234;19.224;2023-05-18T03:50:53;11.25;11.25;8.00
76049;PMS7003;64967;50.234;19.224;2023-05-18T03:53:21;11.75;10.25;7.75
76049;PMS7003;64967;50.234;19.224;2023-05-18T03:55:49;12.25;12.00;9.50
76049;PMS7003;64967;50.234;19.224;2023-05-18T03:58:17;15.00;11.50;9.00
76049;PMS7003;64967;50.234;19.224;2023-05-18T04:00:48;16.50;14.00;10.00
76049;PMS7003;64967;50.234;19.224;2023-05-18T04:03:16;14.25;14.25;10.00
76049;PMS7003;64967;50.234;19.224;2023-05-18T04:05:43;12.25;10.00;8.00
76049;PMS7003;64967;50.234;19.224;2023-05-18T04:08:11;17.00;13.75;10.00
76049;PMS7003;64967;50.234;19.224;2023-05-18T04:10:41;14.00;11.50;9.25
76049;PMS7003;64967;50.234;19.224;2023-05-18T04:13:09;9.50;9.00;6.50
76049;PMS7003;64967;50.234;19.224;2023-05-18T04:15:36;9.00;8.00;5.00
76049;PMS7003;64967;50.234;19.224;2023-05-18T04:18:04;11.00;10.00;8.00
76049;PMS7003;64967;50.234;19.224;2023-05-18T04:20:31;12.00;11.00;7.00
76049;PMS7003;64967;50.234;19.224;2023-05-18T04:22:58;14.25;10.75;8.75
76049;PMS7003;64967;50.234;19.224;2023-05-18T04:25:25;11.50;10.75;8.75
76049;PMS7003;64967;50.234;19.224;2023-05-18T04:27:54;17.25;13.25;10.75
76049;PMS7003;64967;50.234;19.224;2023-05-18T04:30:22;16.75;12.00;10.00
76049;PMS7003;64967;50.234;19.224;2023-05-18T04:32:49;12.75;8.50;7.00
76049;PMS7003;64967;50.234;19.224;2023-05-18T04:35:16;15.75;14.00;10.00
76049;PMS7003;64967;50.234;19.224;2023-05-18T04:37:44;9.25;7.75;6.00
76049;PMS7003;64967;50.234;19.224;2023-05-18T04:40:11;10.00;8.75;7.00
76049;PMS7003;64967;50.234;19.224;2023-05-18T04:42:40;11.25;10.00;8.50
76049;PMS7003;64967;50.234;19.224;2023-05-18T04:45:11;10.50;10.00;7.00
76049;PMS7003;64967;50.234;19.224;2023-05-18T04:47:42;12.75;11.00;9.00
76049;PMS7003;64967;50.234;19.224;2023-05-18T04:50:13;12.50;11.75;9.25
76049;PMS7003;64967;50.234;19.224;2023-05-18T04:52:43;11.50;9.50;8.00
76049;PMS7003;64967;50.234;19.224;2023-05-18T04:55:17;8.50;7.00;4.75
76049;PMS7003;64967;50.234;19.224;2023-05-18T04:57:52;9.25;9.00;7.75
76049;PMS7003;64967;50.234;19.224;2023-05-18T05:00:26;7.00;7.00;5.00
76049;PMS7003;64967;50.234;19.224;2023-05-18T05:02:54;7.75;7.00;6.00
76049;PMS7003;64967;50.234;19.224;2023-05-18T05:05:23;10.50;9.00;4.75
76049;PMS7003;64967;50.234;19.224;2023-05-18T05:07:51;10.75;8.25;7.50
76049;PMS7003;64967;50.234;19.224;2023-05-18T05:10:19;6.75;5.50;4.25
76049;PMS7003;64967;50.234;19.224;2023-05-18T05:12:49;10.75;10.00;8.25
76049;PMS7003;64967;50.234;19.224;2023-05-18T05:15:16;7.00;5.00;4.00
76049;PMS7003;64967;50.234;19.224;2023-05-18T05:17:47;11.25;10.50;8.00
76049;PMS7003;64967;50.234;19.224;2023-05-18T05:20:14;7.50;7.50;5.00
76049;PMS7003;64967;50.234;19.224;2023-05-18T05:22:42;8.75;6.50;6.25
76049;PMS7003;64967;50.234;19.224;2023-05-18T05:25:09;7.25;5.00;4.00
76049;PMS7003;64967;50.234;19.224;2023-05-18T05:27:36;6.75;4.75;3.00
76049;PMS7003;64967;50.234;19.224;2023-05-18T05:30:04;11.75;9.00;7.00
76049;PMS7003;64967;50.234;19.224;2023-05-18T05:32:31;6.50;5.50;5.00
76049;PMS7003;64967;50.234;19.224;2023-05-18T05:34:58;10.00;10.00;7.50
76049;PMS7003;64967;50.234;19.224;2023-05-18T05:37:25;11.75;10.00;8.00
76049;PMS7003;64967;50.234;19.224;2023-05-18T05:39:52;12.00;10.00;8.00
76049;PMS7003;64967;50.234;19.224;2023-05-18T05:42:19;11.25;9.25;8.00
76049;PMS7003;64967;50.234;19.224;2023-05-18T05:44:46;14.75;12.00;9.00
76049;PMS7003;64967;50.234;19.224;2023-05-18T05:47:13;13.75;12.25;9.25
76049;PMS7003;64967;50.234;19.224;2023-05-18T05:49:41;11.50;10.75;8.00
76049;PMS7003;64967;50.234;19.224;2023-05-18T05:52:08;11.25;9.00;7.00
76049;PMS7003;64967;50.234;19.224;2023-05-18T05:54:34;11.75;10.00;8.00
76049;PMS7003;64967;50.234;19.224;2023-05-18T05:57:01;9.50;8.00;6.25
76049;PMS7003;64967;50.234;19.224;2023-05-18T05:59:29;8.75;8.00;6.00
76049;PMS7003;64967;50.234;19.224;2023-05-18T06:01:56;9.00;5.75;4.75
76049;PMS7003;64967;50.234;19.224;2023-05-18T06:04:23;9.00;7.25;5.00
76049;PMS7003;64967;50.234;19.224;2023-05-18T06:06:50;7.75;6.75;5.00
76049;PMS7003;64967;50.234;19.224;2023-05-18T06:09:17;5.50;5.00;4.00
76049;PMS7003;64967;50.234;19.224;2023-05-18T06:11:44;4.75;4.00;3.25
76049;PMS7003;64967;50.234;19.224;2023-05-18T06:14:11;4.00;4.00;3.00
76049;PMS7003;64967;50.234;19.224;2023-05-18T06:16:38;5.25;5.00;4.00
76049;PMS7003;64967;50.234;19.224;2023-05-18T06:19:05;3.00;3.00;2.50
76049;PMS7003;64967;50.234;19.224;2023-05-18T06:21:32;4.25;3.00;2.75
76049;PMS7003;64967;50.234;19.224;2023-05-18T06:23:59;4.50;3.00;2.75
76049;PMS7003;64967;50.234;19.224;2023-05-18T06:26:27;3.00;3.00;2.00
76049;PMS7003;64967;50.234;19.224;2023-05-18T06:28:54;6.25;4.00;3.00
76049;PMS7003;64967;50.234;19.224;2023-05-18T06:31:21;3.25;2.00;2.00
76049;PMS7003;64967;50.234;19.224;2023-05-18T06:33:49;1.75;1.25;1.25
76049;PMS7003;64967;50.234;19.224;2023-05-18T06:36:16;2.00;2.00;2.00
76049;PMS7003;64967;50.234;19.224;2023-05-18T06:38:43;2.00;1.00;1.00
76049;PMS7003;64967;50.234;19.224;2023-05-18T06:41:10;2.50;1.75;1.50
76049;PMS7003;64967;50.234;19.224;2023-05-18T06:43:37;2.00;1.50;1.25
76049;PMS7003;64967;50.234;19.224;2023-05-18T06:46:04;1.50;1.50;1.50
76049;PMS7003;64967;50.234;19.224;2023-05-18T06:48:31;2.00;1.00;1.00
76049;PMS7003;64967;50.234;19.224;2023-05-18T06:50:58;1.00;1.00;1.00
76049;PMS7003;64967;50.234;19.224;2023-05-18T06:53:25;1.00;1.00;1.00
76049;PMS7003;64967;50.234;19.224;2023-05-18T06:55:52;1.00;1.00;1.00
76049;PMS7003;64967;50.234;19.224;2023-05-18T06:58:19;2.00;1.00;1.00
76049;PMS7003;64967;50.234;19.224;2023-05-18T07:00:46;2.00;1.25;1.00
76049;PMS7003;64967;50.234;19.224;2023-05-18T07:03:14;2.00;1.75;1.25
76049;PMS7003;64967;50.234;19.224;2023-05-18T07:05:42;2.00;1.00;1.00
76049;PMS7003;64967;50.234;19.224;2023-05-18T07:08:08;1.00;1.00;1.00
76049;PMS7003;64967;50.234;19.224;2023-05-18T07:10:36;0.50;0.50;0.00
76049;PMS7003;64967;50.234;19.224;2023-05-18T07:13:03;2.00;2.00;1.25
76049;PMS7003;64967;50.234;19.224;2023-05-18T07:15:30;1.00;1.00;1.00
76049;PMS7003;64967;50.234;19.224;2023-05-18T07:17:57;1.50;1.50;1.00
76049;PMS7003;64967;50.234;19.224;2023-05-18T07:20:24;1.00;1.00;1.00
76049;PMS7003;64967;50.234;19.224;2023-05-18T07:22:52;1.50;0.50;0.25
76049;PMS7003;64967;50.234;19.224;2023-05-18T07:25:21;3.00;2.00;1.00
76049;PMS7003;64967;50.234;19.224;2023-05-18T07:27:49;4.00;3.00;3.00
76049;PMS7003;64967;50.234;19.224;2023-05-18T07:30:17;2.00;2.00;1.00
76049;PMS7003;64967;50.234;19.224;2023-05-18T07:32:44;0.50;0.50;0.50
76049;PMS7003;64967;50.234;19.224;2023-05-18T07:35:11;1.75;1.75;1.25
76049;PMS7003;64967;50.234;19.224;2023-05-18T07:37:38;2.00;1.75;1.00
76049;PMS7003;64967;50.234;19.224;2023-05-18T07:40:05;1.00;1.00;0.75
76049;PMS7003;64967;50.234;19.224;2023-05-18T07:42:37;0.25;0.25;0.00
76049;PMS7003;64967;50.234;19.224;2023-05-18T07:45:05;1.50;1.50;1.00
76049;PMS7003;64967;50.234;19.224;2023-05-18T07:47:33;1.25;1.25;1.25
76049;PMS7003;64967;50.234;19.224;2023-05-18T07:50:00;2.50;2.25;2.00
76049;PMS7003;64967;50.234;19.224;2023-05-18T07:52:27;2.00;2.00;1.50
76049;PMS7003;64967;50.234;19.224;2023-05-18T07:54:54;2.25;2.00;2.00
76049;PMS7003;64967;50.234;19.224;2023-05-18T07:57:25;1.50;0.00;0.00
76049;PMS7003;64967;50.234;19.224;2023-05-18T07:59:52;2.00;2.00;1.25
76049;PMS7003;64967;50.234;19.224;2023-05-18T08:02:19;1.25;1.00;1.00
76049;PMS7003;64967;50.234;19.224;2023-05-18T08:04:46;2.00;1.50;1.50
76049;PMS7003;64967;50.234;19.224;2023-05-18T08:07:13;1.00;1.00;1.00
76049;PMS7003;64967;50.234;19.224;2023-05-18T08:09:40;1.00;1.00;1.00
76049;PMS7003;64967;50.234;19.224;2023-05-18T08:12:07;1.00;1.00;1.00
76049;PMS7003;64967;50.234;19.224;2023-05-18T08:14:34;2.00;1.25;1.00
76049;PMS7003;64967;50.234;19.224;2023-05-18T08:17:02;1.00;1.00;1.00
76049;PMS7003;64967;50.234;19.224;2023-05-18T08:19:30;1.00;1.00;1.00
76049;PMS7003;64967;50.234;19.224;2023-05-18T08:21:57;1.75;1.00;1.00
76049;PMS7003;64967;50.234;19.224;2023-05-18T08:24:24;0.25;0.25;0.25
76049;PMS7003;64967;50.234;19.224;2023-05-18T08:26:51;0.00;0.00;0.00
76049;PMS7003;64967;50.234;19.224;2023-05-18T08:29:18;0.75;0.00;0.00
76049;PMS7003;64967;50.234;19.224;2023-05-18T08:31:45;0.00;0.00;0.00
76049;PMS7003;64967;50.234;19.224;2023-05-18T08:34:14;1.00;1.00;0.75
76049;PMS7003;64967;50.234;19.224;2023-05-18T08:36:42;1.00;1.00;0.50
76049;PMS7003;64967;50.234;19.224;2023-05-18T08:39:11;1.75;1.75;1.00
76049;PMS7003;64967;50.234;19.224;2023-05-18T08:44:15;2.00;1.75;1.00
76049;PMS7003;64967;50.234;19.224;2023-05-18T08:46:48;1.75;1.00;1.00
76049;PMS7003;64967;50.234;19.224;2023-05-18T08:49:17;1.00;1.00;1.00
76049;PMS7003;64967;50.234;19.224;2023-05-18T08:51:47;2.00;1.75;1.00
76049;PMS7003;64967;50.234;19.224;2023-05-18T08:54:20;2.00;2.00;1.25
76049;PMS7003;64967;50.234;19.224;2023-05-18T08:56:48;1.50;1.00;0.50
76049;PMS7003;64967;50.234;19.224;2023-05-18T08:59:18;1.75;1.75;1.00
76049;PMS7003;64967;50.234;19.224;2023-05-18T09:01:50;2.00;2.00;1.00
76049;PMS7003;64967;50.234;19.224;2023-05-18T09:04:18;1.00;1.00;1.00
76049;PMS7003;64967;50.234;19.224;2023-05-18T09:06:46;1.00;1.00;1.00
76049;PMS7003;64967;50.234;19.224;2023-05-18T09:09:15;5.00;2.75;2.00
76049;PMS7003;64967;50.234;19.224;2023-05-18T09:11:43;2.25;1.50;1.00
76049;PMS7003;64967;50.234;19.224;2023-05-18T09:14:12;1.00;1.00;1.00
76049;PMS7003;64967;50.234;19.224;2023-05-18T09:16:39;1.00;1.00;1.00
76049;PMS7003;64967;50.234;19.224;2023-05-18T09:19:07;2.25;2.00;2.00
76049;PMS7003;64967;50.234;19.224;2023-05-18T09:21:34;4.00;1.75;1.00
76049;PMS7003;64967;50.234;19.224;2023-05-18T09:24:01;3.00;1.50;1.50
76049;PMS7003;64967;50.234;19.224;2023-05-18T09:26:28;2.00;2.00;1.75
76049;PMS7003;64967;50.234;19.224;2023-05-18T09:28:56;2.00;1.00;1.00
76049;PMS7003;64967;50.234;19.224;2023-05-18T09:31:24;1.75;1.75;1.75
76049;PMS7003;64967;50.234;19.224;2023-05-18T09:33:53;2.00;2.00;2.00
76049;PMS7003;64967;50.234;19.224;2023-05-18T09:36:24;2.00;1.50;1.00
76049;PMS7003;64967;50.234;19.224;2023-05-18T09:38:51;2.00;1.75;1.00
76049;PMS7003;64967;50.234;19.224;2023-05-18T09:41:19;3.00;3.00;3.00
76049;PMS7003;64967;50.234;19.224;2023-05-18T09:43:47;1.75;1.00;1.00
76049;PMS7003;64967;50.234;19.224;2023-05-18T09:46:14;1.25;1.25;1.00
76049;PMS7003;64967;50.234;19.224;2023-05-18T09:48:42;1.75;1.00;1.00
76049;PMS7003;64967;50.234;19.224;2023-05-18T09:51:11;2.75;2.00;1.00
76049;PMS7003;64967;50.234;19.224;2023-05-18T09:53:46;2.00;2.00;1.00
76049;PMS7003;64967;50.234;19.224;2023-05-18T09:56:16;0.00;0.00;0.00
76049;PMS7003;64967;50.234;19.224;2023-05-18T09:58:43;1.50;1.25;1.25
76049;PMS7003;64967;50.234;19.224;2023-05-18T10:01:11;1.00;1.00;1.00
76049;PMS7003;64967;50.234;19.224;2023-05-18T10:03:38;1.25;1.25;1.25
76049;PMS7003;64967;50.234;19.224;2023-05-18T10:06:09;2.00;2.00;2.00
76049;PMS7003;64967;50.234;19.224;2023-05-18T10:08:40;1.00;1.00;1.00
76049;PMS7003;64967;50.234;19.224;2023-05-18T10:11:07;2.00;1.00;0.25
76049;PMS7003;64967;50.234;19.224;2023-05-18T10:13:34;0.50;0.50;0.00
76049;PMS7003;64967;50.234;19.224;2023-05-18T10:16:02;0.75;0.75;0.25
76049;PMS7003;64967;50.234;19.224;2023-05-18T10:18:32;1.00;1.00;1.00
76049;PMS7003;64967;50.234;19.224;2023-05-18T10:21:01;2.00;1.75;1.00
76049;PMS7003;64967;50.234;19.224;2023-05-18T10:23:32;1.75;1.25;1.00
76049;PMS7003;64967;50.234;19.224;2023-05-18T10:26:04;1.50;1.00;1.00
76049;PMS7003;64967;50.234;19.224;2023-05-18T10:28:45;1.00;1.00;1.00
76049;PMS7003;64967;50.234;19.224;2023-05-18T10:31:15;2.00;1.00;1.00
76049;PMS7003;64967;50.234;19.224;2023-05-18T10:33:44;0.00;0.00;0.00
76049;PMS7003;64967;50.234;19.224;2023-05-18T10:36:11;1.00;1.00;0.75
76049;PMS7003;64967;50.234;19.224;2023-05-18T10:38:38;2.00;2.00;1.00
76049;PMS7003;64967;50.234;19.224;2023-05-18T10:41:10;1.00;0.75;0.75
76049;PMS7003;64967;50.234;19.224;2023-05-18T10:43:38;4.00;1.75;1.25
76049;PMS7003;64967;50.234;19.224;2023-05-18T10:46:07;2.25;2.00;2.00
76049;PMS7003;64967;50.234;19.224;2023-05-18T10:48:38;3.00;2.00;1.50
76049;PMS7003;64967;50.234;19.224;2023-05-18T10:51:06;4.00;2.25;2.00
76049;PMS7003;64967;50.234;19.224;2023-05-18T10:53:33;4.75;3.75;2.75
76049;PMS7003;64967;50.234;19.224;2023-05-18T10:56:02;4.50;3.75;2.00
76049;PMS7003;64967;50.234;19.224;2023-05-18T10:58:29;2.00;2.00;1.25
76049;PMS7003;64967;50.234;19.224;2023-05-18T11:00:58;3.00;2.25;2.00
76049;PMS7003;64967;50.234;19.224;2023-05-18T11:03:28;3.00;3.00;3.00
76049;PMS7003;64967;50.234;19.224;2023-05-18T11:06:05;2.00;2.00;2.00
76049;PMS7003;64967;50.234;19.224;2023-05-18T11:08:45;2.00;1.00;1.00
76049;PMS7003;64967;50.234;19.224;2023-05-18T11:11:15;1.00;1.00;1.00
76049;PMS7003;64967;50.234;19.224;2023-05-18T11:13:47;1.00;1.00;0.50
76049;PMS7003;64967;50.234;19.224;2023-05-18T11:16:16;1.00;1.00;0.75
76049;PMS7003;64967;50.234;19.224;2023-05-18T11:18:44;1.00;1.00;1.00
76049;PMS7003;64967;50.234;19.224;2023-05-18T11:24:40;1.75;1.00;0.75
76049;PMS7003;64967;50.234;19.224;2023-05-18T11:26:51;1.75;1.00;1.00
76049;PMS7003;64967;50.234;19.224;2023-05-18T11:29:30;1.00;1.00;0.25
76049;PMS7003;64967;50.234;19.224;2023-05-18T11:31:59;1.50;1.50;1.25
76049;PMS7003;64967;50.234;19.224;2023-05-18T11:34:44;3.75;3.00;2.00
76049;PMS7003;64967;50.234;19.224;2023-05-18T11:37:16;1.25;1.25;1.00
76049;PMS7003;64967;50.234;19.224;2023-05-18T11:40:10;0.75;0.75;0.75
76049;PMS7003;64967;50.234;19.224;2023-05-18T11:42:39;2.25;2.25;2.00
76049;PMS7003;64967;50.234;19.224;2023-05-18T11:45:09;1.00;1.00;1.00
76049;PMS7003;64967;50.234;19.224;2023-05-18T11:47:38;2.00;1.25;1.00
76049;PMS7003;64967;50.234;19.224;2023-05-18T11:50:07;0.50;0.50;0.25
76049;PMS7003;64967;50.234;19.224;2023-05-18T11:52:46;0.00;0.00;0.00
76049;PMS7003;64967;50.234;19.224;2023-05-18T11:55:17;1.00;1.00;1.00
76049;PMS7003;64967;50.234;19.224;2023-05-18T11:57:47;1.00;0.00;0.00
76049;PMS7003;64967;50.234;19.224;2023-05-18T12:00:18;0.75;0.75;0.00
76049;PMS7003;64967;50.234;19.224;2023-05-18T12:02:46;0.50;0.50;0.00
76049;PMS7003;64967;50.234;19.224;2023-05-18T12:05:14;0.67;0.67;0.33
76049;PMS7003;64967;50.234;19.224;2023-05-18T12:07:42;1.00;1.00;0.50
76049;PMS7003;64967;50.234;19.224;2023-05-18T12:10:11;2.00;1.00;1.00
76049;PMS7003;64967;50.234;19.224;2023-05-18T12:12:42;2.25;1.75;1.00
76049;PMS7003;64967;50.234;19.224;2023-05-18T12:15:14;2.00;1.00;1.00
76049;PMS7003;64967;50.234;19.224;2023-05-18T12:17:43;0.75;0.75;0.75
76049;PMS7003;64967;50.234;19.224;2023-05-18T12:20:18;1.00;1.00;1.00
76049;PMS7003;64967;50.234;19.224;2023-05-18T12:22:48;1.00;1.00;1.00
76049;PMS7003;64967;50.234;19.224;2023-05-18T12:25:18;1.00;0.00;0.00
76049;PMS7003;64967;50.234;19.224;2023-05-18T12:27:47;0.50;0.00;0.00
76049;PMS7003;64967;50.234;19.224;2023-05-18T12:30:18;1.00;1.00;1.00
76049;PMS7003;64967;50.234;19.224;2023-05-18T12:32:50;1.00;1.00;0.75
76049;PMS7003;64967;50.234;19.224;2023-05-18T12:37:49;1.25;1.25;1.00
76049;PMS7003;64967;50.234;19.224;2023-05-18T12:40:17;1.25;1.00;1.00
76049;PMS7003;64967;50.234;19.224;2023-05-18T12:42:52;1.00;1.00;1.00
76049;PMS7003;64967;50.234;19.224;2023-05-18T12:45:21;1.50;1.00;1.00
76049;PMS7003;64967;50.234;19.224;2023-05-18T12:47:53;1.00;1.00;1.00
76049;PMS7003;64967;50.234;19.224;2023-05-18T12:50:22;3.75;3.00;2.00
76049;PMS7003;64967;50.234;19.224;2023-05-18T12:52:53;2.00;2.00;2.00
76049;PMS7003;64967;50.234;19.224;2023-05-18T12:55:22;2.00;2.00;1.00
76049;PMS7003;64967;50.234;19.224;2023-05-18T12:58:00;2.00;1.25;1.00
76049;PMS7003;64967;50.234;19.224;2023-05-18T13:00:32;3.00;2.00;1.50
76049;PMS7003;64967;50.234;19.224;2023-05-18T13:03:08;2.25;2.00;1.00
76049;PMS7003;64967;50.234;19.224;2023-05-18T13:05:44;1.25;1.25;1.00
76049;PMS7003;64967;50.234;19.224;2023-05-18T13:08:12;2.00;1.00;1.00
76049;PMS7003;64967;50.234;19.224;2023-05-18T13:10:42;1.00;1.00;1.00
76049;PMS7003;64967;50.234;19.224;2023-05-18T13:13:09;2.00;1.00;1.00
76049;PMS7003;64967;50.234;19.224;2023-05-18T13:15:40;2.75;1.50;1.00
76049;PMS7003;64967;50.234;19.224;2023-05-18T13:18:09;1.00;1.00;1.00
76049;PMS7003;64967;50.234;19.224;2023-05-18T13:20:45;1.00;1.00;0.75
76049;PMS7003;64967;50.234;19.224;2023-05-18T13:23:17;3.50;3.00;3.00
76049;PMS7003;64967;50.234;19.224;2023-05-18T13:25:45;2.00;2.00;1.00
76049;PMS7003;64967;50.234;19.224;2023-05-18T13:28:13;7.75;5.00;4.00
76049;PMS7003;64967;50.234;19.224;2023-05-18T13:30:42;6.25;5.75;4.25
76049;PMS7003;64967;50.234;19.224;2023-05-18T13:33:12;3.25;3.25;2.50
76049;PMS7003;64967;50.234;19.224;2023-05-18T13:35:41;3.00;3.00;2.75
76049;PMS7003;64967;50.234;19.224;2023-05-18T13:38:11;4.75;4.75;3.00
76049;PMS7003;64967;50.234;19.224;2023-05-18T13:40:39;4.00;4.00;3.00
76049;PMS7003;64967;50.234;19.224;2023-05-18T13:43:07;4.00;3.25;3.00
76049;PMS7003;64967;50.234;19.224;2023-05-18T13:45:38;2.75;2.75;1.75
76049;PMS7003;64967;50.234;19.224;2023-05-18T13:48:05;3.75;3.00;2.00
76049;PMS7003;64967;50.234;19.224;2023-05-18T13:50:36;4.25;3.00;2.00
76049;PMS7003;64967;50.234;19.224;2023-05-18T13:53:03;3.75;3.00;2.25
76049;PMS7003;64967;50.234;19.224;2023-05-18T13:55:30;5.00;4.50;3.00
76049;PMS7003;64967;50.234;19.224;2023-05-18T13:57:58;4.00;2.00;2.00
76049;PMS7003;64967;50.234;19.224;2023-05-18T14:00:26;2.00;2.00;2.00
76049;PMS7003;64967;50.234;19.224;2023-05-18T14:02:53;2.75;1.50;1.00
76049;PMS7003;64967;50.234;19.224;2023-05-18T14:05:22;2.00;2.00;2.00
76049;PMS7003;64967;50.234;19.224;2023-05-18T14:07:49;4.00;3.25;3.00
76049;PMS7003;64967;50.234;19.224;2023-05-18T14:10:19;2.00;2.00;1.25
76049;PMS7003;64967;50.234;19.224;2023-05-18T14:12:47;2.00;2.00;1.00
76049;PMS7003;64967;50.234;19.224;2023-05-18T14:15:14;3.50;3.00;3.00
76049;PMS7003;64967;50.234;19.224;2023-05-18T14:17:41;3.00;3.00;2.75
76049;PMS7003;64967;50.234;19.224;2023-05-18T14:20:09;5.00;5.00;3.00
76049;PMS7003;64967;50.234;19.224;2023-05-18T14:22:38;4.25;3.50;3.00
76049;PMS7003;64967;50.234;19.224;2023-05-18T14:25:06;2.25;2.00;2.00
76049;PMS7003;64967;50.234;19.224;2023-05-18T14:27:33;2.00;2.00;1.00
76049;PMS7003;64967;50.234;19.224;2023-05-18T14:30:00;1.50;1.00;1.00